sensor_id;sensor_type;location;lat;lon;timestamp;P1;durP1;ratioP1;P2;durP2;ratioP2
41436;SDS011;27178;49.460;10.850;2023-05-10T00:01:44;4.85;;;4.45;;
41436;SDS011;27178;49.460;10.850;2023-05-10T00:04:13;4.97;;;4.57;;
41436;SDS011;27178;49.460;10.850;2023-05-10T00:06:41;5.20;;;4.80;;
41436;SDS011;27178;49.460;10.850;2023-05-10T00:09:09;5.20;;;4.80;;
41436;SDS011;27178;49.460;10.850;2023-05-10T00:11:38;7.20;;;4.60;;
41436;SDS011;27178;49.460;10.850;2023-05-10T00:14:08;4.90;;;4.50;;
41436;SDS011;27178;49.460;10.850;2023-05-10T00:16:36;4.93;;;4.55;;
41436;SDS011;27178;49.460;10.850;2023-05-10T00:19:04;5.00;;;4.60;;
41436;SDS011;27178;49.460;10.850;2023-05-10T00:21:32;4.90;;;4.53;;
41436;SDS011;27178;49.460;10.850;2023-05-10T00:24:01;4.72;;;4.43;;
41436;SDS011;27178;49.460;10.850;2023-05-10T00:26:29;5.22;;;4.72;;
41436;SDS011;27178;49.460;10.850;2023-05-10T00:28:58;4.75;;;4.43;;
41436;SDS011;27178;49.460;10.850;2023-05-10T00:31:27;4.57;;;4.18;;
41436;SDS011;27178;49.460;10.850;2023-05-10T00:33:56;5.03;;;4.60;;
41436;SDS011;27178;49.460;10.850;2023-05-10T00:36:24;4.55;;;4.25;;
41436;SDS011;27178;49.460;10.850;2023-05-10T00:38:53;4.53;;;4.13;;
41436;SDS011;27178;49.460;10.850;2023-05-10T00:41:22;3.92;;;3.63;;
41436;SDS011;27178;49.460;10.850;2023-05-10T00:43:50;4.82;;;4.30;;
41436;SDS011;27178;49.460;10.850;2023-05-10T00:46:18;4.93;;;4.22;;
41436;SDS011;27178;49.460;10.850;2023-05-10T00:48:48;4.90;;;4.50;;
41436;SDS011;27178;49.460;10.850;2023-05-10T00:51:17;4.18;;;3.88;;
41436;SDS011;27178;49.460;10.850;2023-05-10T00:53:45;4.30;;;4.00;;
41436;SDS011;27178;49.460;10.850;2023-05-10T00:56:14;4.32;;;3.97;;
41436;SDS011;27178;49.460;10.850;2023-05-10T00:58:43;4.03;;;3.72;;
41436;SDS011;27178;49.460;10.850;2023-05-10T01:01:12;4.88;;;4.47;;
41436;SDS011;27178;49.460;10.850;2023-05-10T01:03:41;4.13;;;3.83;;
41436;SDS011;27178;49.460;10.850;2023-05-10T01:06:11;4.75;;;4.30;;
41436;SDS011;27178;49.460;10.850;2023-05-10T01:08:40;4.20;;;3.90;;
41436;SDS011;27178;49.460;10.850;2023-05-10T01:11:09;4.25;;;3.95;;
41436;SDS011;27178;49.460;10.850;2023-05-10T01:13:38;4.47;;;3.78;;
41436;SDS011;27178;49.460;10.850;2023-05-10T01:16:11;4.43;;;4.10;;
41436;SDS011;27178;49.460;10.850;2023-05-10T01:18:40;3.95;;;3.65;;
41436;SDS011;27178;49.460;10.850;2023-05-10T01:21:14;3.90;;;3.60;;
41436;SDS011;27178;49.460;10.850;2023-05-10T01:24:12;3.60;;;3.30;;
41436;SDS011;27178;49.460;10.850;2023-05-10T01:27:14;3.80;;;3.50;;
41436;SDS011;27178;49.460;10.850;2023-05-10T01:32:43;3.40;;;3.10;;
41436;SDS011;27178;49.460;10.850;2023-05-10T01:35:18;3.33;;;3.03;;
41436;SDS011;27178;49.460;10.850;2023-05-10T01:37:57;2.90;;;2.70;;
41436;SDS011;27178;49.460;10.850;2023-05-10T01:40:35;3.33;;;3.10;;
41436;SDS011;27178;49.460;10.850;2023-05-10T01:43:08;3.08;;;2.88;;
41436;SDS011;27178;49.460;10.850;2023-05-10T01:45:44;3.97;;;3.55;;
41436;SDS011;27178;49.460;10.850;2023-05-10T01:48:26;3.03;;;2.83;;
41436;SDS011;27178;49.460;10.850;2023-05-10T01:50:56;3.70;;;3.40;;
41436;SDS011;27178;49.460;10.850;2023-05-10T01:53:25;2.80;;;2.60;;
41436;SDS011;27178;49.460;10.850;2023-05-10T01:55:55;3.50;;;3.10;;
41436;SDS011;27178;49.460;10.850;2023-05-10T01:58:27;4.75;;;2.80;;
41436;SDS011;27178;49.460;10.850;2023-05-10T02:01:00;3.28;;;3.08;;
41436;SDS011;27178;49.460;10.850;2023-05-10T02:03:32;3.17;;;2.97;;
41436;SDS011;27178;49.460;10.850;2023-05-10T02:06:03;3.97;;;3.67;;
41436;SDS011;27178;49.460;10.850;2023-05-10T02:08:33;3.70;;;3.40;;
41436;SDS011;27178;49.460;10.850;2023-05-10T02:11:04;3.30;;;3.10;;
41436;SDS011;27178;49.460;10.850;2023-05-10T02:13:33;3.30;;;3.05;;
41436;SDS011;27178;49.460;10.850;2023-05-10T02:16:06;2.90;;;2.70;;
41436;SDS011;27178;49.460;10.850;2023-05-10T02:18:37;3.08;;;2.88;;
41436;SDS011;27178;49.460;10.850;2023-05-10T02:21:08;3.00;;;2.80;;
41436;SDS011;27178;49.460;10.850;2023-05-10T02:23:39;5.05;;;2.55;;
41436;SDS011;27178;49.460;10.850;2023-05-10T02:26:08;2.45;;;2.25;;
41436;SDS011;27178;49.460;10.850;2023-05-10T02:28:38;2.58;;;2.38;;
41436;SDS011;27178;49.460;10.850;2023-05-10T02:31:09;2.60;;;2.40;;
41436;SDS011;27178;49.460;10.850;2023-05-10T02:33:39;2.50;;;2.30;;
41436;SDS011;27178;49.460;10.850;2023-05-10T02:36:09;2.03;;;1.92;;
41436;SDS011;27178;49.460;10.850;2023-05-10T02:38:38;1.75;;;1.65;;
41436;SDS011;27178;49.460;10.850;2023-05-10T02:41:07;1.52;;;1.42;;
41436;SDS011;27178;49.460;10.850;2023-05-10T02:43:38;1.45;;;1.35;;
41436;SDS011;27178;49.460;10.850;2023-05-10T02:46:08;1.30;;;1.20;;
41436;SDS011;27178;49.460;10.850;2023-05-10T02:48:36;1.30;;;1.20;;
41436;SDS011;27178;49.460;10.850;2023-05-10T02:51:06;1.23;;;1.13;;
41436;SDS011;27178;49.460;10.850;2023-05-10T02:53:36;0.77;;;0.77;;
41436;SDS011;27178;49.460;10.850;2023-05-10T02:56:09;0.98;;;0.98;;
41436;SDS011;27178;49.460;10.850;2023-05-10T02:58:41;0.88;;;0.88;;
41436;SDS011;27178;49.460;10.850;2023-05-10T03:01:09;0.90;;;0.90;;
41436;SDS011;27178;49.460;10.850;2023-05-10T03:03:38;0.50;;;0.50;;
41436;SDS011;27178;49.460;10.850;2023-05-10T03:06:07;0.82;;;0.80;;
41436;SDS011;27178;49.460;10.850;2023-05-10T03:08:36;0.57;;;0.57;;
41436;SDS011;27178;49.460;10.850;2023-05-10T03:11:09;0.82;;;0.73;;
41436;SDS011;27178;49.460;10.850;2023-05-10T03:13:48;0.70;;;0.70;;
41436;SDS011;27178;49.460;10.850;2023-05-10T03:16:25;0.40;;;0.40;;
41436;SDS011;27178;49.460;10.850;2023-05-10T03:19:00;0.65;;;0.65;;
41436;SDS011;27178;49.460;10.850;2023-05-10T03:21:36;0.50;;;0.50;;
41436;SDS011;27178;49.460;10.850;2023-05-10T03:24:08;0.57;;;0.57;;
41436;SDS011;27178;49.460;10.850;2023-05-10T03:26:41;0.90;;;0.38;;
41436;SDS011;27178;49.460;10.850;2023-05-10T03:29:12;0.50;;;0.50;;
41436;SDS011;27178;49.460;10.850;2023-05-10T03:31:42;0.98;;;0.47;;
41436;SDS011;27178;49.460;10.850;2023-05-10T03:34:10;0.40;;;0.40;;
41436;SDS011;27178;49.460;10.850;2023-05-10T03:36:40;0.38;;;0.38;;
41436;SDS011;27178;49.460;10.850;2023-05-10T03:39:08;1.70;;;0.43;;
41436;SDS011;27178;49.460;10.850;2023-05-10T03:41:37;0.47;;;0.40;;
41436;SDS011;27178;49.460;10.850;2023-05-10T03:44:05;1.17;;;0.50;;
41436;SDS011;27178;49.460;10.850;2023-05-10T03:46:34;0.63;;;0.50;;
41436;SDS011;27178;49.460;10.850;2023-05-10T03:49:02;0.82;;;0.52;;
41436;SDS011;27178;49.460;10.850;2023-05-10T03:51:30;0.35;;;0.35;;
41436;SDS011;27178;49.460;10.850;2023-05-10T03:54:00;0.50;;;0.50;;
41436;SDS011;27178;49.460;10.850;2023-05-10T03:56:28;0.50;;;0.50;;
41436;SDS011;27178;49.460;10.850;2023-05-10T03:58:57;0.22;;;0.22;;
41436;SDS011;27178;49.460;10.850;2023-05-10T04:01:25;0.25;;;0.25;;
41436;SDS011;27178;49.460;10.850;2023-05-10T04:03:53;0.30;;;0.30;;
41436;SDS011;27178;49.460;10.850;2023-05-10T04:06:22;0.22;;;0.22;;
41436;SDS011;27178;49.460;10.850;2023-05-10T04:08:50;0.52;;;0.35;;
41436;SDS011;27178;49.460;10.850;2023-05-10T04:11:20;0.40;;;0.40;;
41436;SDS011;27178;49.460;10.850;2023-05-10T04:13:48;0.30;;;0.30;;
41436;SDS011;27178;49.460;10.850;2023-05-10T04:16:16;0.40;;;0.40;;
41436;SDS011;27178;49.460;10.850;2023-05-10T04:18:45;0.57;;;0.30;;
41436;SDS011;27178;49.460;10.850;2023-05-10T04:21:14;0.17;;;0.17;;
41436;SDS011;27178;49.460;10.850;2023-05-10T04:23:43;0.40;;;0.40;;
41436;SDS011;27178;49.460;10.850;2023-05-10T04:26:11;0.95;;;0.63;;
41436;SDS011;27178;49.460;10.850;2023-05-10T04:28:42;0.20;;;0.20;;
41436;SDS011;27178;49.460;10.850;2023-05-10T04:31:10;0.52;;;0.52;;
41436;SDS011;27178;49.460;10.850;2023-05-10T04:33:38;0.30;;;0.30;;
41436;SDS011;27178;49.460;10.850;2023-05-10T04:36:07;0.08;;;0.08;;
41436;SDS011;27178;49.460;10.850;2023-05-10T04:38:35;0.40;;;0.40;;
41436;SDS011;27178;49.460;10.850;2023-05-10T04:41:03;0.38;;;0.38;;
41436;SDS011;27178;49.460;10.850;2023-05-10T04:43:33;0.20;;;0.20;;
41436;SDS011;27178;49.460;10.850;2023-05-10T04:46:03;0.35;;;0.35;;
41436;SDS011;27178;49.460;10.850;2023-05-10T04:48:31;0.30;;;0.30;;
41436;SDS011;27178;49.460;10.850;2023-05-10T04:51:00;0.40;;;0.40;;
41436;SDS011;27178;49.460;10.850;2023-05-10T04:53:30;0.40;;;0.40;;
41436;SDS011;27178;49.460;10.850;2023-05-10T04:55:58;0.22;;;0.20;;
41436;SDS011;27178;49.460;10.850;2023-05-10T04:58:26;0.55;;;0.40;;
41436;SDS011;27178;49.460;10.850;2023-05-10T05:00:54;0.22;;;0.22;;
41436;SDS011;27178;49.460;10.850;2023-05-10T05:03:24;0.43;;;0.43;;
41436;SDS011;27178;49.460;10.850;2023-05-10T05:05:53;0.40;;;0.40;;
41436;SDS011;27178;49.460;10.850;2023-05-10T05:08:21;0.50;;;0.50;;
41436;SDS011;27178;49.460;10.850;2023-05-10T05:10:50;0.40;;;0.40;;
41436;SDS011;27178;49.460;10.850;2023-05-10T05:13:18;0.30;;;0.30;;
41436;SDS011;27178;49.460;10.850;2023-05-10T05:15:47;0.88;;;0.40;;
41436;SDS011;27178;49.460;10.850;2023-05-10T05:18:15;0.65;;;0.65;;
41436;SDS011;27178;49.460;10.850;2023-05-10T05:20:45;0.40;;;0.40;;
41436;SDS011;27178;49.460;10.850;2023-05-10T05:23:13;0.35;;;0.35;;
41436;SDS011;27178;49.460;10.850;2023-05-10T05:25:42;1.67;;;0.60;;
41436;SDS011;27178;49.460;10.850;2023-05-10T05:28:10;1.05;;;0.68;;
41436;SDS011;27178;49.460;10.850;2023-05-10T05:30:38;0.60;;;0.60;;
41436;SDS011;27178;49.460;10.850;2023-05-10T05:33:06;0.80;;;0.70;;
41436;SDS011;27178;49.460;10.850;2023-05-10T05:35:34;0.45;;;0.45;;
41436;SDS011;27178;49.460;10.850;2023-05-10T05:38:04;0.70;;;0.70;;
41436;SDS011;27178;49.460;10.850;2023-05-10T05:40:33;0.37;;;0.37;;
41436;SDS011;27178;49.460;10.850;2023-05-10T05:43:01;0.55;;;0.55;;
41436;SDS011;27178;49.460;10.850;2023-05-10T05:45:29;0.57;;;0.57;;
41436;SDS011;27178;49.460;10.850;2023-05-10T05:47:58;0.60;;;0.60;;
41436;SDS011;27178;49.460;10.850;2023-05-10T05:50:27;0.60;;;0.60;;
41436;SDS011;27178;49.460;10.850;2023-05-10T05:52:55;0.55;;;0.55;;
41436;SDS011;27178;49.460;10.850;2023-05-10T05:55:25;0.68;;;0.68;;
41436;SDS011;27178;49.460;10.850;2023-05-10T05:57:54;0.63;;;0.63;;
41436;SDS011;27178;49.460;10.850;2023-05-10T06:00:22;0.85;;;0.85;;
41436;SDS011;27178;49.460;10.850;2023-05-10T06:02:50;0.50;;;0.50;;
41436;SDS011;27178;49.460;10.850;2023-05-10T06:05:18;0.63;;;0.63;;
41436;SDS011;27178;49.460;10.850;2023-05-10T06:07:47;1.30;;;0.82;;
41436;SDS011;27178;49.460;10.850;2023-05-10T06:10:17;0.63;;;0.45;;
41436;SDS011;27178;49.460;10.850;2023-05-10T06:12:46;0.85;;;0.82;;
41436;SDS011;27178;49.460;10.850;2023-05-10T06:15:14;0.68;;;0.68;;
41436;SDS011;27178;49.460;10.850;2023-05-10T06:17:43;0.65;;;0.65;;
41436;SDS011;27178;49.460;10.850;2023-05-10T06:20:12;0.93;;;0.93;;
41436;SDS011;27178;49.460;10.850;2023-05-10T06:22:40;0.88;;;0.88;;
41436;SDS011;27178;49.460;10.850;2023-05-10T06:25:09;0.80;;;0.80;;
41436;SDS011;27178;49.460;10.850;2023-05-10T06:27:38;0.70;;;0.70;;
41436;SDS011;27178;49.460;10.850;2023-05-10T06:30:09;1.13;;;1.02;;
41436;SDS011;27178;49.460;10.850;2023-05-10T06:32:39;0.80;;;0.80;;
41436;SDS011;27178;49.460;10.850;2023-05-10T06:35:10;1.00;;;1.00;;
41436;SDS011;27178;49.460;10.850;2023-05-10T06:37:39;1.63;;;1.10;;
41436;SDS011;27178;49.460;10.850;2023-05-10T06:40:07;1.25;;;0.93;;
41436;SDS011;27178;49.460;10.850;2023-05-10T06:42:36;1.17;;;1.08;;
41436;SDS011;27178;49.460;10.850;2023-05-10T06:45:05;0.88;;;0.88;;
41436;SDS011;27178;49.460;10.850;2023-05-10T06:47:36;1.08;;;1.08;;
41436;SDS011;27178;49.460;10.850;2023-05-10T06:50:05;1.92;;;1.10;;
41436;SDS011;27178;49.460;10.850;2023-05-10T06:52:35;1.00;;;1.00;;
41436;SDS011;27178;49.460;10.850;2023-05-10T06:55:03;0.70;;;0.70;;
41436;SDS011;27178;49.460;10.850;2023-05-10T06:57:32;2.00;;;0.90;;
41436;SDS011;27178;49.460;10.850;2023-05-10T07:00:00;0.95;;;0.95;;
41436;SDS011;27178;49.460;10.850;2023-05-10T07:02:31;0.85;;;0.85;;
41436;SDS011;27178;49.460;10.850;2023-05-10T07:05:01;1.48;;;1.17;;
41436;SDS011;27178;49.460;10.850;2023-05-10T07:07:30;1.73;;;0.95;;
41436;SDS011;27178;49.460;10.850;2023-05-10T07:09:58;1.00;;;1.00;;
41436;SDS011;27178;49.460;10.850;2023-05-10T07:12:27;1.05;;;1.05;;
41436;SDS011;27178;49.460;10.850;2023-05-10T07:14:55;2.70;;;1.00;;
41436;SDS011;27178;49.460;10.850;2023-05-10T07:17:23;1.15;;;1.05;;
41436;SDS011;27178;49.460;10.850;2023-05-10T07:19:52;1.05;;;1.05;;
41436;SDS011;27178;49.460;10.850;2023-05-10T07:22:21;1.13;;;1.08;;
41436;SDS011;27178;49.460;10.850;2023-05-10T07:24:50;1.48;;;1.10;;
41436;SDS011;27178;49.460;10.850;2023-05-10T07:27:18;1.00;;;1.00;;
41436;SDS011;27178;49.460;10.850;2023-05-10T07:29:46;1.80;;;1.08;;
41436;SDS011;27178;49.460;10.850;2023-05-10T07:32:14;1.10;;;1.00;;
41436;SDS011;27178;49.460;10.850;2023-05-10T07:34:43;1.35;;;0.90;;
41436;SDS011;27178;49.460;10.850;2023-05-10T07:37:11;1.10;;;1.10;;
41436;SDS011;27178;49.460;10.850;2023-05-10T07:39:40;2.35;;;1.17;;
41436;SDS011;27178;49.460;10.850;2023-05-10T07:42:08;1.00;;;1.00;;
41436;SDS011;27178;49.460;10.850;2023-05-10T07:44:37;6.43;;;1.20;;
41436;SDS011;27178;49.460;10.850;2023-05-10T07:47:08;1.58;;;1.25;;
41436;SDS011;27178;49.460;10.850;2023-05-10T07:49:36;3.63;;;1.17;;
41436;SDS011;27178;49.460;10.850;2023-05-10T07:52:05;1.40;;;1.20;;
41436;SDS011;27178;49.460;10.850;2023-05-10T07:54:33;2.00;;;1.15;;
41436;SDS011;27178;49.460;10.850;2023-05-10T07:57:03;1.05;;;1.05;;
41436;SDS011;27178;49.460;10.850;2023-05-10T07:59:31;1.35;;;1.25;;
41436;SDS011;27178;49.460;10.850;2023-05-10T08:02:00;1.08;;;1.08;;
41436;SDS011;27178;49.460;10.850;2023-05-10T08:04:28;1.40;;;1.27;;
41436;SDS011;27178;49.460;10.850;2023-05-10T08:06:57;1.25;;;1.15;;
41436;SDS011;27178;49.460;10.850;2023-05-10T08:09:25;1.88;;;1.20;;
41436;SDS011;27178;49.460;10.850;2023-05-10T08:11:53;1.20;;;1.20;;
41436;SDS011;27178;49.460;10.850;2023-05-10T08:14:23;1.20;;;1.13;;
41436;SDS011;27178;49.460;10.850;2023-05-10T08:16:51;0.90;;;0.90;;
41436;SDS011;27178;49.460;10.850;2023-05-10T08:19:20;1.60;;;1.20;;
41436;SDS011;27178;49.460;10.850;2023-05-10T08:21:48;1.23;;;1.20;;
41436;SDS011;27178;49.460;10.850;2023-05-10T08:24:17;0.98;;;0.98;;
41436;SDS011;27178;49.460;10.850;2023-05-10T08:26:46;1.33;;;1.23;;
41436;SDS011;27178;49.460;10.850;2023-05-10T08:29:14;1.20;;;1.20;;
41436;SDS011;27178;49.460;10.850;2023-05-10T08:31:45;1.40;;;1.30;;
41436;SDS011;27178;49.460;10.850;2023-05-10T08:34:13;1.20;;;1.20;;
41436;SDS011;27178;49.460;10.850;2023-05-10T08:36:42;1.55;;;1.30;;
41436;SDS011;27178;49.460;10.850;2023-05-10T08:39:10;1.40;;;1.30;;
41436;SDS011;27178;49.460;10.850;2023-05-10T08:41:54;1.20;;;1.13;;
41436;SDS011;27178;49.460;10.850;2023-05-10T08:44:28;1.42;;;1.20;;
41436;SDS011;27178;49.460;10.850;2023-05-10T08:46:59;1.10;;;1.10;;
41436;SDS011;27178;49.460;10.850;2023-05-10T08:49:32;1.40;;;1.20;;
41436;SDS011;27178;49.460;10.850;2023-05-10T08:52:02;1.70;;;1.38;;
41436;SDS011;27178;49.460;10.850;2023-05-10T08:54:32;1.55;;;1.23;;
41436;SDS011;27178;49.460;10.850;2023-05-10T08:57:00;1.10;;;1.10;;
41436;SDS011;27178;49.460;10.850;2023-05-10T08:59:29;2.60;;;1.42;;
41436;SDS011;27178;49.460;10.850;2023-05-10T09:01:59;1.20;;;1.13;;
41436;SDS011;27178;49.460;10.850;2023-05-10T09:04:29;2.20;;;1.58;;
41436;SDS011;27178;49.460;10.850;2023-05-10T09:06:58;4.95;;;1.23;;
41436;SDS011;27178;49.460;10.850;2023-05-10T09:09:26;1.80;;;1.38;;
41436;SDS011;27178;49.460;10.850;2023-05-10T09:11:55;1.33;;;1.17;;
41436;SDS011;27178;49.460;10.850;2023-05-10T09:14:24;5.78;;;1.50;;
41436;SDS011;27178;49.460;10.850;2023-05-10T09:16:53;2.30;;;1.40;;
41436;SDS011;27178;49.460;10.850;2023-05-10T09:19:23;1.20;;;1.10;;
41436;SDS011;27178;49.460;10.850;2023-05-10T09:21:51;3.13;;;1.35;;
41436;SDS011;27178;49.460;10.850;2023-05-10T09:24:20;1.58;;;1.25;;
41436;SDS011;27178;49.460;10.850;2023-05-10T09:26:53;2.13;;;0.98;;
41436;SDS011;27178;49.460;10.850;2023-05-10T09:29:21;1.58;;;1.48;;
41436;SDS011;27178;49.460;10.850;2023-05-10T09:31:50;1.33;;;1.23;;
41436;SDS011;27178;49.460;10.850;2023-05-10T09:34:27;2.38;;;1.30;;
41436;SDS011;27178;49.460;10.850;2023-05-10T09:36:59;2.90;;;1.20;;
41436;SDS011;27178;49.460;10.850;2023-05-10T09:39:30;4.93;;;1.50;;
41436;SDS011;27178;49.460;10.850;2023-05-10T09:41:59;3.05;;;1.30;;
41436;SDS011;27178;49.460;10.850;2023-05-10T09:44:30;3.13;;;1.20;;
41436;SDS011;27178;49.460;10.850;2023-05-10T09:47:00;2.42;;;1.20;;
41436;SDS011;27178;49.460;10.850;2023-05-10T09:49:30;2.55;;;1.25;;
41436;SDS011;27178;49.460;10.850;2023-05-10T09:52:00;1.35;;;1.25;;
41436;SDS011;27178;49.460;10.850;2023-05-10T09:54:30;2.40;;;0.90;;
41436;SDS011;27178;49.460;10.850;2023-05-10T09:56:59;1.30;;;1.20;;
41436;SDS011;27178;49.460;10.850;2023-05-10T09:59:28;1.55;;;1.10;;
41436;SDS011;27178;49.460;10.850;2023-05-10T10:01:57;5.38;;;1.70;;
41436;SDS011;27178;49.460;10.850;2023-05-10T10:04:27;2.42;;;1.08;;
41436;SDS011;27178;49.460;10.850;2023-05-10T10:07:01;1.95;;;1.13;;
41436;SDS011;27178;49.460;10.850;2023-05-10T10:09:30;1.30;;;1.20;;
41436;SDS011;27178;49.460;10.850;2023-05-10T10:11:59;1.50;;;1.30;;
41436;SDS011;27178;49.460;10.850;2023-05-10T10:14:28;4.20;;;1.25;;
41436;SDS011;27178;49.460;10.850;2023-05-10T10:16:57;1.10;;;1.00;;
41436;SDS011;27178;49.460;10.850;2023-05-10T10:19:33;1.20;;;1.02;;
41436;SDS011;27178;49.460;10.850;2023-05-10T10:22:05;1.30;;;1.20;;
41436;SDS011;27178;49.460;10.850;2023-05-10T10:24:33;1.00;;;1.00;;
41436;SDS011;27178;49.460;10.850;2023-05-10T10:27:04;0.80;;;0.80;;
41436;SDS011;27178;49.460;10.850;2023-05-10T10:29:52;1.15;;;1.05;;
41436;SDS011;27178;49.460;10.850;2023-05-10T10:32:32;1.70;;;0.95;;
41436;SDS011;27178;49.460;10.850;2023-05-10T10:35:10;1.00;;;1.00;;
41436;SDS011;27178;49.460;10.850;2023-05-10T10:37:44;1.15;;;1.05;;
41436;SDS011;27178;49.460;10.850;2023-05-10T10:40:23;1.33;;;1.23;;
41436;SDS011;27178;49.460;10.850;2023-05-10T10:42:53;1.27;;;1.00;;
41436;SDS011;27178;49.460;10.850;2023-05-10T10:45:24;1.75;;;1.10;;
41436;SDS011;27178;49.460;10.850;2023-05-10T10:50:55;0.95;;;0.95;;
41436;SDS011;27178;49.460;10.850;2023-05-10T10:53:27;1.20;;;1.10;;
41436;SDS011;27178;49.460;10.850;2023-05-10T10:56:02;1.10;;;1.00;;
41436;SDS011;27178;49.460;10.850;2023-05-10T10:58:34;1.42;;;1.33;;
41436;SDS011;27178;49.460;10.850;2023-05-10T11:01:13;1.70;;;1.40;;
41436;SDS011;27178;49.460;10.850;2023-05-10T11:03:55;1.42;;;1.23;;
41436;SDS011;27178;49.460;10.850;2023-05-10T11:06:46;1.10;;;1.10;;
41436;SDS011;27178;49.460;10.850;2023-05-10T11:09:15;1.27;;;1.17;;
41436;SDS011;27178;49.460;10.850;2023-05-10T11:11:48;1.48;;;1.38;;
41436;SDS011;27178;49.460;10.850;2023-05-10T11:14:19;1.27;;;1.20;;
41436;SDS011;27178;49.460;10.850;2023-05-10T11:16:48;1.30;;;1.20;;
41436;SDS011;27178;49.460;10.850;2023-05-10T11:19:17;1.20;;;1.20;;
41436;SDS011;27178;49.460;10.850;2023-05-10T11:21:47;1.45;;;1.20;;
41436;SDS011;27178;49.460;10.850;2023-05-10T11:24:18;1.40;;;1.30;;
41436;SDS011;27178;49.460;10.850;2023-05-10T11:26:49;1.45;;;1.35;;
41436;SDS011;27178;49.460;10.850;2023-05-10T11:29:18;1.35;;;1.17;;
41436;SDS011;27178;49.460;10.850;2023-05-10T11:31:47;1.30;;;1.15;;
41436;SDS011;27178;49.460;10.850;2023-05-10T11:34:23;0.88;;;0.88;;
41436;SDS011;27178;49.460;10.850;2023-05-10T11:36:52;1.35;;;1.23;;
41436;SDS011;27178;49.460;10.850;2023-05-10T11:39:26;1.52;;;1.13;;
41436;SDS011;27178;49.460;10.850;2023-05-10T11:41:55;1.35;;;1.20;;
41436;SDS011;27178;49.460;10.850;2023-05-10T11:44:24;1.10;;;1.10;;
41436;SDS011;27178;49.460;10.850;2023-05-10T11:46:58;0.90;;;0.90;;
41436;SDS011;27178;49.460;10.850;2023-05-10T11:49:27;1.05;;;1.00;;
41436;SDS011;27178;49.460;10.850;2023-05-10T11:52:03;1.35;;;0.70;;
41436;SDS011;27178;49.460;10.850;2023-05-10T11:54:33;1.02;;;0.93;;
41436;SDS011;27178;49.460;10.850;2023-05-10T11:57:02;0.73;;;0.73;;
41436;SDS011;27178;49.460;10.850;2023-05-10T11:59:31;0.70;;;0.70;;
41436;SDS011;27178;49.460;10.850;2023-05-10T12:02:00;0.63;;;0.63;;
41436;SDS011;27178;49.460;10.850;2023-05-10T12:04:28;6.07;;;1.20;;
41436;SDS011;27178;49.460;10.850;2023-05-10T12:06:57;0.60;;;0.60;;
41436;SDS011;27178;49.460;10.850;2023-05-10T12:09:25;0.60;;;0.60;;
41436;SDS011;27178;49.460;10.850;2023-05-10T12:12:10;2.10;;;0.90;;
41436;SDS011;27178;49.460;10.850;2023-05-10T12:14:44;1.08;;;0.73;;
41436;SDS011;27178;49.460;10.850;2023-05-10T12:17:16;0.80;;;0.80;;
41436;SDS011;27178;49.460;10.850;2023-05-10T12:19:44;0.63;;;0.55;;
41436;SDS011;27178;49.460;10.850;2023-05-10T12:22:13;0.80;;;0.80;;
41436;SDS011;27178;49.460;10.850;2023-05-10T12:24:42;1.02;;;0.82;;
41436;SDS011;27178;49.460;10.850;2023-05-10T12:27:14;0.90;;;0.90;;
41436;SDS011;27178;49.460;10.850;2023-05-10T12:29:42;2.47;;;0.77;;
41436;SDS011;27178;49.460;10.850;2023-05-10T12:32:11;1.20;;;1.10;;
41436;SDS011;27178;49.460;10.850;2023-05-10T12:34:39;1.42;;;1.02;;
41436;SDS011;27178;49.460;10.850;2023-05-10T12:37:07;1.45;;;1.10;;
41436;SDS011;27178;49.460;10.850;2023-05-10T12:39:39;0.98;;;0.98;;
41436;SDS011;27178;49.460;10.850;2023-05-10T12:42:08;0.80;;;0.80;;
41436;SDS011;27178;49.460;10.850;2023-05-10T12:44:38;1.15;;;0.90;;
41436;SDS011;27178;49.460;10.850;2023-05-10T12:47:07;0.60;;;0.60;;
41436;SDS011;27178;49.460;10.850;2023-05-10T12:49:35;2.03;;;1.15;;
41436;SDS011;27178;49.460;10.850;2023-05-10T12:52:04;0.85;;;0.85;;
41436;SDS011;27178;49.460;10.850;2023-05-10T12:54:32;0.65;;;0.65;;
41436;SDS011;27178;49.460;10.850;2023-05-10T12:57:00;0.52;;;0.52;;
41436;SDS011;27178;49.460;10.850;2023-05-10T12:59:28;0.80;;;0.80;;
41436;SDS011;27178;49.460;10.850;2023-05-10T13:01:58;1.80;;;0.60;;
41436;SDS011;27178;49.460;10.850;2023-05-10T13:04:27;0.65;;;0.65;;
41436;SDS011;27178;49.460;10.850;2023-05-10T13:06:55;0.60;;;0.60;;
41436;SDS011;27178;49.460;10.850;2023-05-10T13:09:25;2.05;;;0.93;;
41436;SDS011;27178;49.460;10.850;2023-05-10T13:11:56;0.57;;;0.57;;
41436;SDS011;27178;49.460;10.850;2023-05-10T13:14:25;0.95;;;0.80;;
41436;SDS011;27178;49.460;10.850;2023-05-10T13:16:54;0.93;;;0.70;;
41436;SDS011;27178;49.460;10.850;2023-05-10T13:19:23;0.47;;;0.47;;
41436;SDS011;27178;49.460;10.850;2023-05-10T13:21:52;0.63;;;0.63;;
41436;SDS011;27178;49.460;10.850;2023-05-10T13:24:20;0.50;;;0.50;;
41436;SDS011;27178;49.460;10.850;2023-05-10T13:26:49;1.67;;;0.90;;
41436;SDS011;27178;49.460;10.850;2023-05-10T13:29:17;0.50;;;0.50;;
41436;SDS011;27178;49.460;10.850;2023-05-10T13:31:45;0.70;;;0.70;;
41436;SDS011;27178;49.460;10.850;2023-05-10T13:34:14;1.35;;;0.77;;
41436;SDS011;27178;49.460;10.850;2023-05-10T13:36:44;1.00;;;0.85;;
41436;SDS011;27178;49.460;10.850;2023-05-10T13:39:12;0.55;;;0.55;;
41436;SDS011;27178;49.460;10.850;2023-05-10T13:41:40;0.88;;;0.50;;
41436;SDS011;27178;49.460;10.850;2023-05-10T13:44:11;0.80;;;0.80;;
41436;SDS011;27178;49.460;10.850;2023-05-10T13:46:40;1.27;;;0.65;;
41436;SDS011;27178;49.460;10.850;2023-05-10T13:49:09;0.80;;;0.80;;
41436;SDS011;27178;49.460;10.850;2023-05-10T13:51:37;0.77;;;0.77;;
41436;SDS011;27178;49.460;10.850;2023-05-10T13:54:07;0.88;;;0.85;;
41436;SDS011;27178;49.460;10.850;2023-05-10T13:56:38;0.93;;;0.80;;
41436;SDS011;27178;49.460;10.850;2023-05-10T13:59:07;1.08;;;0.80;;
41436;SDS011;27178;49.460;10.850;2023-05-10T14:01:36;0.90;;;0.60;;
41436;SDS011;27178;49.460;10.850;2023-05-10T14:04:05;0.60;;;0.60;;
41436;SDS011;27178;49.460;10.850;2023-05-10T14:06:33;0.85;;;0.82;;
41436;SDS011;27178;49.460;10.850;2023-05-10T14:09:02;1.95;;;0.90;;
41436;SDS011;27178;49.460;10.850;2023-05-10T14:11:32;0.95;;;0.88;;
41436;SDS011;27178;49.460;10.850;2023-05-10T14:14:00;0.85;;;0.85;;
41436;SDS011;27178;49.460;10.850;2023-05-10T14:16:29;0.90;;;0.90;;
41436;SDS011;27178;49.460;10.850;2023-05-10T14:18:58;2.83;;;0.90;;
41436;SDS011;27178;49.460;10.850;2023-05-10T14:21:26;2.30;;;0.82;;
41436;SDS011;27178;49.460;10.850;2023-05-10T14:23:56;0.85;;;0.85;;
41436;SDS011;27178;49.460;10.850;2023-05-10T14:26:24;1.00;;;1.00;;
41436;SDS011;27178;49.460;10.850;2023-05-10T14:28:54;1.10;;;1.10;;
41436;SDS011;27178;49.460;10.850;2023-05-10T14:31:22;0.82;;;0.82;;
41436;SDS011;27178;49.460;10.850;2023-05-10T14:33:52;0.90;;;0.90;;
41436;SDS011;27178;49.460;10.850;2023-05-10T14:36:21;1.02;;;0.88;;
41436;SDS011;27178;49.460;10.850;2023-05-10T14:38:49;1.00;;;1.00;;
41436;SDS011;27178;49.460;10.850;2023-05-10T14:41:18;1.60;;;0.80;;
41436;SDS011;27178;49.460;10.850;2023-05-10T14:43:46;1.35;;;1.05;;
41436;SDS011;27178;49.460;10.850;2023-05-10T14:46:16;2.28;;;1.00;;
41436;SDS011;27178;49.460;10.850;2023-05-10T14:48:44;1.10;;;0.70;;
41436;SDS011;27178;49.460;10.850;2023-05-10T14:51:13;0.93;;;0.77;;
41436;SDS011;27178;49.460;10.850;2023-05-10T14:53:42;0.63;;;0.60;;
41436;SDS011;27178;49.460;10.850;2023-05-10T14:56:10;0.73;;;0.73;;